createdAt,value
2022-12-25T00:00:00.125Z,5.5
2022-12-25T00:05:00.109Z,5.5
2022-12-25T00:10:00.096Z,5.5
2022-12-25T00:15:00.133Z,5.5
2022-12-25T00:20:00.128Z,6
2022-12-25T00:25:00.120Z,6
2022-12-25T00:30:00.122Z,5.5
2022-12-25T00:35:00.178Z,5.5
2022-12-25T00:40:00.141Z,5.5
2022-12-25T00:45:00.129Z,5.5
2022-12-25T00:50:00.111Z,5.5
2022-12-25T00:55:00.130Z,5.5
2022-12-25T01:00:00.163Z,5.5
2022-12-25T01:05:00.177Z,5.5
2022-12-25T01:10:00.156Z,5.5
2022-12-25T01:15:00.210Z,5
2022-12-25T01:20:00.111Z,5
2022-12-25T01:25:00.142Z,5
2022-12-25T01:30:00.154Z,4.5
2022-12-25T01:35:00.149Z,4.5
2022-12-25T01:40:00.168Z,4.5
2022-12-25T01:45:00.105Z,4.5
2022-12-25T01:50:00.180Z,4.5
2022-12-25T01:55:00.157Z,4.5
2022-12-25T02:00:00.123Z,4.5
2022-12-25T02:05:00.132Z,4.5
2022-12-25T02:10:00.135Z,4.5
2022-12-25T02:15:05.161Z,4.5
2022-12-25T02:20:00.145Z,4.5
2022-12-25T02:25:00.137Z,4.5
2022-12-25T02:30:00.179Z,4.5
2022-12-25T02:35:00.146Z,4.5
2022-12-25T02:40:00.160Z,4.5
2022-12-25T02:45:00.148Z,4.5
2022-12-25T02:50:00.169Z,4.5
2022-12-25T02:55:00.135Z,4.5
2022-12-25T03:00:00.130Z,4.5
2022-12-25T03:05:00.127Z,5
2022-12-25T03:10:00.131Z,5
2022-12-25T03:15:00.145Z,5
2022-12-25T03:20:00.128Z,5
2022-12-25T03:25:00.119Z,5
2022-12-25T03:30:00.157Z,4.5
2022-12-25T03:35:00.130Z,4.5
2022-12-25T03:40:00.139Z,4.5
2022-12-25T03:45:00.141Z,4.5
2022-12-25T03:50:00.176Z,4.5
2022-12-25T03:55:00.183Z,4.5
2022-12-25T04:00:00.186Z,4.5
2022-12-25T04:05:00.136Z,4.5
2022-12-25T04:10:00.155Z,5
2022-12-25T04:15:00.126Z,5
2022-12-25T04:20:00.130Z,5
2022-12-25T04:25:00.200Z,5
2022-12-25T04:30:00.136Z,5
2022-12-25T04:35:00.141Z,5
2022-12-25T04:40:00.120Z,5
2022-12-25T04:45:00.124Z,4.5
2022-12-25T04:50:00.147Z,4.5
2022-12-25T04:55:00.159Z,4.5
2022-12-25T05:00:00.180Z,4.5
2022-12-25T05:05:00.152Z,4.5
2022-12-25T05:10:00.130Z,4.5
2022-12-25T05:15:00.213Z,4.5
2022-12-25T05:20:00.131Z,4.5
2022-12-25T05:25:00.092Z,4.5
2022-12-25T05:30:00.171Z,4.5
2022-12-25T05:35:00.140Z,4.5
2022-12-25T05:40:00.136Z,4.5
2022-12-25T05:45:00.104Z,4.5
2022-12-25T05:50:00.088Z,4.5
2022-12-25T05:55:00.131Z,4.5
2022-12-25T06:00:00.144Z,5
2022-12-25T06:05:00.145Z,5
2022-12-25T06:10:00.123Z,5
2022-12-25T06:15:00.168Z,5
2022-12-25T06:20:00.141Z,5
2022-12-25T06:25:00.129Z,5
2022-12-25T06:30:00.159Z,5
2022-12-25T06:35:00.186Z,5
2022-12-25T06:40:00.097Z,5
2022-12-25T06:45:00.148Z,5
2022-12-25T06:50:00.174Z,5
2022-12-25T06:55:00.121Z,5
2022-12-25T07:00:00.204Z,5.5
2022-12-25T07:05:00.123Z,5.5
2022-12-25T07:10:00.115Z,5.5
2022-12-25T07:15:00.125Z,5.5
2022-12-25T07:20:00.134Z,5.5
2022-12-25T07:25:00.107Z,5.5
2022-12-25T07:30:00.133Z,5.5
2022-12-25T07:35:00.133Z,5.5
2022-12-25T07:40:00.160Z,5.5
2022-12-25T07:45:00.141Z,6
2022-12-25T07:50:00.127Z,6
2022-12-25T07:55:00.142Z,6
2022-12-25T08:00:00.228Z,6
2022-12-25T08:05:00.174Z,6.5
2022-12-25T08:10:00.130Z,6.5
2022-12-25T08:15:00.163Z,6.5
2022-12-25T08:20:00.127Z,6.5
2022-12-25T08:25:00.110Z,6.5
2022-12-25T08:30:00.168Z,7
2022-12-25T08:35:00.146Z,7.5
2022-12-25T08:40:00.130Z,7.5
2022-12-25T08:45:00.130Z,8
2022-12-25T08:50:00.116Z,8
2022-12-25T08:55:00.154Z,8.5
2022-12-25T09:00:00.186Z,9
2022-12-25T09:05:00.135Z,9
2022-12-25T09:10:00.175Z,9.5
2022-12-25T09:15:00.135Z,10
2022-12-25T09:20:00.103Z,10.5
2022-12-25T09:25:00.118Z,10.5
2022-12-25T09:30:00.137Z,10.5
2022-12-25T09:35:00.128Z,10
2022-12-25T09:40:00.150Z,10.5
2022-12-25T09:45:00.108Z,11
2022-12-25T09:50:00.117Z,11
2022-12-25T09:55:00.155Z,11
2022-12-25T10:00:00.104Z,11.5
2022-12-25T10:05:00.112Z,12
2022-12-25T10:10:00.135Z,12.5
2022-12-25T10:15:00.154Z,12.5
2022-12-25T10:20:00.127Z,13
2022-12-25T10:25:00.135Z,12.5
2022-12-25T10:30:00.154Z,13
2022-12-25T10:35:00.128Z,13.5
2022-12-25T10:40:00.140Z,13.5
2022-12-25T10:45:00.125Z,14.5
2022-12-25T10:50:00.126Z,14.5
2022-12-25T10:55:00.113Z,14
2022-12-25T11:00:00.180Z,13
2022-12-25T11:05:00.134Z,12.5
2022-12-25T11:10:04.552Z,12
2022-12-25T11:15:00.135Z,12
2022-12-25T11:20:00.137Z,11.5
2022-12-25T11:25:00.118Z,11.5
2022-12-25T11:30:00.175Z,11
2022-12-25T11:35:00.153Z,11
2022-12-25T11:40:00.175Z,11
2022-12-25T11:45:00.109Z,11
2022-12-25T11:50:00.846Z,11
2022-12-25T11:55:00.139Z,11
2022-12-25T12:00:00.161Z,11
2022-12-25T12:05:00.114Z,11
2022-12-25T12:10:00.116Z,11.5
2022-12-25T12:15:00.172Z,11.5
2022-12-25T12:20:00.196Z,11.5
2022-12-25T12:25:00.156Z,11.5
2022-12-25T12:30:00.189Z,11.5
2022-12-25T12:35:00.149Z,11.5
2022-12-25T12:40:00.099Z,11
2022-12-25T12:45:00.117Z,11
2022-12-25T12:50:00.182Z,11
2022-12-25T12:55:00.173Z,11
2022-12-25T13:00:05.066Z,10.5
2022-12-25T13:05:00.123Z,10.5
2022-12-25T13:10:00.218Z,10.5
2022-12-25T13:15:00.199Z,10
2022-12-25T13:20:00.264Z,10
2022-12-25T13:25:00.143Z,10
2022-12-25T13:30:00.221Z,10
2022-12-25T13:35:00.147Z,10
2022-12-25T13:40:00.177Z,10
2022-12-25T13:45:00.108Z,10
2022-12-25T13:50:00.166Z,10
2022-12-25T13:55:00.164Z,10
2022-12-25T14:00:00.170Z,10
2022-12-25T14:05:00.160Z,10
2022-12-25T14:10:00.141Z,10
2022-12-25T14:15:00.138Z,10
2022-12-25T14:20:05.921Z,10
2022-12-25T14:25:00.114Z,10
2022-12-25T14:30:00.128Z,10
2022-12-25T14:35:00.127Z,10
2022-12-25T14:40:00.158Z,10
2022-12-25T14:45:00.121Z,10
2022-12-25T14:50:00.147Z,10
2022-12-25T14:55:00.128Z,10
2022-12-25T15:00:00.172Z,10
2022-12-25T15:05:00.209Z,10
2022-12-25T15:10:28.906Z,10
2022-12-25T15:15:00.189Z,10
2022-12-25T15:20:00.111Z,10
2022-12-25T15:25:02.393Z,9.5
2022-12-25T15:30:09.487Z,9.5
2022-12-25T15:35:00.154Z,9.5
2022-12-25T15:40:00.109Z,9.5
2022-12-25T15:45:00.167Z,9.5
2022-12-25T15:50:00.135Z,9.5
2022-12-25T15:55:00.153Z,9.5
2022-12-25T16:00:00.197Z,9.5
2022-12-25T16:05:02.092Z,9.5
2022-12-25T16:10:00.142Z,9
2022-12-25T16:15:00.127Z,9
2022-12-25T16:20:00.194Z,9
2022-12-25T16:25:00.133Z,9
2022-12-25T16:30:00.246Z,9
2022-12-25T16:35:00.134Z,9
2022-12-25T16:40:00.195Z,9
2022-12-25T16:45:00.123Z,9
2022-12-25T16:50:00.182Z,9
2022-12-25T16:55:00.130Z,9
2022-12-25T17:00:00.192Z,9
2022-12-25T17:05:00.108Z,9
2022-12-25T17:10:00.113Z,9
2022-12-25T17:15:00.150Z,9
2022-12-25T17:20:00.130Z,9
2022-12-25T17:25:00.109Z,9
2022-12-25T17:30:00.142Z,9
2022-12-25T17:35:00.130Z,9
2022-12-25T17:40:00.111Z,9
2022-12-25T17:45:00.110Z,9
2022-12-25T17:50:00.118Z,9
2022-12-25T17:55:00.151Z,9
2022-12-25T18:00:00.229Z,9
2022-12-25T18:05:00.117Z,9
2022-12-25T18:10:00.129Z,9
2022-12-25T18:15:00.201Z,9
2022-12-25T18:20:00.189Z,9
2022-12-25T18:25:00.127Z,9
2022-12-25T18:30:00.154Z,9.5
2022-12-25T18:35:00.145Z,9.5
2022-12-25T18:40:00.108Z,9.5
2022-12-25T18:45:00.140Z,9.5
2022-12-25T18:50:00.102Z,9.5
2022-12-25T18:55:00.130Z,9.5
2022-12-25T19:00:00.209Z,10
2022-12-25T19:05:00.140Z,10
2022-12-25T19:10:00.131Z,10
2022-12-25T19:15:00.166Z,10.5
2022-12-25T19:20:00.139Z,10.5
2022-12-25T19:25:00.169Z,10.5
2022-12-25T19:30:00.161Z,10.5
2022-12-25T19:35:00.158Z,10.5
2022-12-25T19:40:00.190Z,10.5
2022-12-25T19:45:00.114Z,10.5
2022-12-25T19:50:02.831Z,10.5
2022-12-25T19:55:00.144Z,11
2022-12-25T20:00:00.188Z,11
2022-12-25T20:05:00.200Z,11
2022-12-25T20:10:00.133Z,11
2022-12-25T20:15:00.181Z,11
2022-12-25T20:20:00.139Z,11
2022-12-25T20:25:00.144Z,11
2022-12-25T20:30:00.139Z,11
2022-12-25T20:35:00.157Z,11
2022-12-25T20:40:00.150Z,11
2022-12-25T20:45:00.106Z,11
2022-12-25T20:50:00.142Z,11
2022-12-25T20:55:00.124Z,11
2022-12-25T21:00:00.188Z,11.5
2022-12-25T21:05:00.140Z,11.5
2022-12-25T21:10:00.124Z,11.5
2022-12-25T21:15:00.143Z,11.5
2022-12-25T21:20:00.112Z,11.5
2022-12-25T21:25:00.120Z,11.5
2022-12-25T21:30:00.128Z,11.5
2022-12-25T21:35:00.129Z,11.5
2022-12-25T21:40:00.103Z,11.5
2022-12-25T21:45:00.100Z,11.5
2022-12-25T21:50:00.131Z,11.5
2022-12-25T21:55:00.147Z,11.5
2022-12-25T22:00:00.138Z,11.5
2022-12-25T22:05:00.102Z,11.5
2022-12-25T22:10:00.135Z,11.5
2022-12-25T22:15:00.123Z,11.5
2022-12-25T22:20:00.191Z,11.5
2022-12-25T22:25:00.130Z,11.5
2022-12-25T22:30:00.150Z,11.5
2022-12-25T22:35:00.176Z,11.5
2022-12-25T22:40:00.125Z,11.5
2022-12-25T22:45:00.147Z,11.5
2022-12-25T22:50:00.100Z,11.5
2022-12-25T22:55:00.192Z,11.5
2022-12-25T23:00:00.181Z,11.5
2022-12-25T23:05:00.175Z,11.5
2022-12-25T23:10:00.235Z,11.5
2022-12-25T23:15:00.170Z,11.5
2022-12-25T23:20:00.146Z,11.5
2022-12-25T23:25:00.119Z,11.5
2022-12-25T23:30:00.140Z,11.5
2022-12-25T23:35:00.157Z,11.5
2022-12-25T23:40:00.147Z,11.5
2022-12-25T23:45:00.136Z,11.5
2022-12-25T23:50:00.152Z,11.5
2022-12-25T23:55:00.137Z,11.5
